^^
Station Historical Data
 
Daily Summary for October 15, 2018 Units:  English    Metric   Both
« Previous Day
Next Day »
Daily Weekly Monthly Yearly Custom
  Current: High: Low: Average:
Temperature: 1.0 °F TemperatureC °F 1.0 °F 1.4 °F
Dew Point: 0.0 °F DewpointC °F 0.0 °F 0.7 °F
Humidity: 93% Humidity% 93% 94%
Wind Speed: 5.6mph WindSpeedKMHmph 3.7mph 7.1mph
Wind Gust: 4.7mph WindSpeedGustKMHmph - -
WindSW - - WSW
Pressure: 1017.5 in PressurehPa in 1016.1 in -
Precipitation: 0.5 in      
Historical Graphs
 
 
Tabular Data for October 15, 2018
Time Temperature Dew Point Pressure Wind Wind Speed Wind Gust Humidity Rainfall Rate (Hourly) solar Conditions
TemperatureC °F DewpointC °F PressurehPa in Calm     Humidity% HourlyPrecipMM in SoftwareType W/m2 Conditions
00:04 1.2 °F 0.6 °F 1017.2 in West 5.6 mph 5.0 mph 96% 0.2 in WeatherDisplay:10.37 W/m2 RA
00:09 1.2 °F 0.6 °F 1017.2 in North 6.4 mph 5.0 mph 96% 0.2 in WeatherDisplay:10.37 W/m2 RA
00:14 1.2 °F 0.6 °F 1016.8 in SSW 5.6 mph 5.5 mph 96% 0.0 in WeatherDisplay:10.37 W/m2 OVC
00:19 1.2 °F 0.6 °F 1016.8 in WSW 5.6 mph 4.7 mph 96% 0.3 in WeatherDisplay:10.37 W/m2 RA
00:24 1.2 °F 0.6 °F 1016.8 in WNW 6.4 mph 5.0 mph 96% 0.3 in WeatherDisplay:10.37 W/m2 RA
00:29 1.4 °F 0.8 °F 1016.8 in WNW 5.6 mph 5.8 mph 96% 0.3 in WeatherDisplay:10.37 W/m2 OVC
00:34 1.4 °F 0.8 °F 1017.2 in WSW 5.6 mph 4.3 mph 96% 0.3 in WeatherDisplay:10.37 W/m2 OVC
00:39 1.5 °F 0.9 °F 1017.2 in WNW 5.6 mph 4.7 mph 96% 0.3 in WeatherDisplay:10.37 W/m2 OVC
00:44 1.5 °F 0.9 °F 1016.8 in WNW 6.4 mph 5.8 mph 96% 0.3 in WeatherDisplay:10.37 W/m2 OVC
00:49 1.5 °F 0.9 °F 1016.8 in NNW 5.6 mph 3.5 mph 96% 0.3 in WeatherDisplay:10.37 W/m2 OVC
00:54 1.5 °F 0.9 °F 1016.5 in NNW 5.6 mph 4.0 mph 96% 0.3 in WeatherDisplay:10.37 W/m2 OVC
00:59 1.5 °F 0.9 °F 1016.5 in NE 3.7 mph 2.1 mph 96% 0.3 in WeatherDisplay:10.37 W/m2 OVC
01:04 1.5 °F 0.9 °F 1016.1 in West 6.4 mph 2.6 mph 96% 0.3 in WeatherDisplay:10.37 W/m2 -RA
01:09 1.5 °F 0.9 °F 1016.1 in NE 5.6 mph 4.7 mph 96% 0.3 in WeatherDisplay:10.37 W/m2 -RA
01:14 1.5 °F 0.9 °F 1016.5 in NNW 7.4 mph 4.7 mph 96% 0.3 in WeatherDisplay:10.37 W/m2 -RA
01:19 1.5 °F 0.9 °F 1016.5 in West 3.7 mph 3.2 mph 96% 0.0 in WeatherDisplay:10.37 W/m2 -RA
01:24 1.5 °F 0.9 °F 1016.5 in West 6.4 mph 4.3 mph 96% 0.0 in WeatherDisplay:10.37 W/m2 -RA
01:29 1.5 °F 0.9 °F 1016.5 in West 7.9 mph 6.4 mph 96% 0.0 in WeatherDisplay:10.37 W/m2 -RA
01:34 1.5 °F 0.9 °F 1016.6 in WNW 5.6 mph 5.0 mph 96% 0.0 in WeatherDisplay:10.37 W/m2 -RA
01:39 1.5 °F 0.9 °F 1016.6 in NW 7.4 mph 5.0 mph 96% 0.0 in WeatherDisplay:10.37 W/m2 -RA
01:44 1.5 °F 0.9 °F 1016.9 in West 5.6 mph 5.5 mph 96% 0.0 in WeatherDisplay:10.37 W/m2 -RA
01:49 1.6 °F 1.1 °F 1016.9 in West 5.6 mph 2.6 mph 96% 0.0 in WeatherDisplay:10.37 W/m2 -RA
01:54 1.6 °F 1.1 °F 1016.9 in WNW 5.6 mph 5.5 mph 96% 0.2 in WeatherDisplay:10.37 W/m2 -RA
01:59 1.6 °F 1.1 °F 1016.9 in WSW 7.4 mph 5.5 mph 96% 0.2 in WeatherDisplay:10.37 W/m2 -RA
02:04 1.5 °F 0.9 °F 1016.6 in WNW 9.3 mph 6.1 mph 96% 0.2 in WeatherDisplay:10.37 W/m2 -RA
02:09 1.5 °F 0.9 °F 1016.6 in NW 7.4 mph 5.0 mph 96% 0.2 in WeatherDisplay:10.37 W/m2 -RA
02:14 1.5 °F 0.9 °F 1016.6 in WNW 9.3 mph 5.8 mph 96% 0.2 in WeatherDisplay:10.37 W/m2 -RA
02:19 1.5 °F 0.9 °F 1016.9 in West 5.6 mph 4.7 mph 96% 0.2 in WeatherDisplay:10.37 W/m2 -RA
02:24 1.5 °F 0.9 °F 1016.9 in NW 11.1 mph 5.5 mph 96% 0.2 in WeatherDisplay:10.37 W/m2 -RA
02:29 1.5 °F 0.9 °F 1016.9 in WSW 7.9 mph 4.7 mph 96% 0.2 in WeatherDisplay:10.37 W/m2 -RA
02:34 1.6 °F 1.1 °F 1016.9 in WNW 7.9 mph 5.0 mph 96% 0.2 in WeatherDisplay:10.37 W/m2 -RA
02:39 1.6 °F 1.1 °F 1016.6 in WNW 7.9 mph 7.2 mph 96% 0.2 in WeatherDisplay:10.37 W/m2 -RA
02:44 1.6 °F 1.1 °F 1016.2 in West 4.7 mph 4.3 mph 96% 0.2 in WeatherDisplay:10.37 W/m2 -RA
02:49 1.6 °F 1.1 °F 1016.6 in West 6.4 mph 4.3 mph 96% 0.2 in WeatherDisplay:10.37 W/m2 -RA
02:54 1.6 °F 1.1 °F 1016.6 in West 7.9 mph 4.3 mph 96% 0.0 in WeatherDisplay:10.37 W/m2 OVC
02:59 1.6 °F 1.1 °F 1016.6 in SSW 7.4 mph 5.8 mph 96% 0.0 in WeatherDisplay:10.37 W/m2 OVC
03:04 1.6 °F 1.1 °F 1016.6 in West 5.6 mph 5.0 mph 96% 0.0 in WeatherDisplay:10.37 W/m2 OVC
03:09 1.6 °F 1.1 °F 1016.6 in West 11.1 mph 5.8 mph 96% 0.0 in WeatherDisplay:10.37 W/m2 OVC
03:14 1.6 °F 1.1 °F 1016.6 in West 5.6 mph 4.7 mph 96% 0.0 in WeatherDisplay:10.37 W/m2 OVC
03:19 1.6 °F 1.1 °F 1017.0 in West 6.4 mph 4.0 mph 96% 0.0 in WeatherDisplay:10.37 W/m2 OVC
03:24 1.6 °F 1.1 °F 1016.6 in WSW 9.3 mph 5.8 mph 96% 0.0 in WeatherDisplay:10.37 W/m2 OVC
03:29 1.6 °F 1.1 °F 1016.7 in North 6.4 mph 4.0 mph 96% 0.0 in WeatherDisplay:10.37 W/m2 OVC
03:34 1.6 °F 1.1 °F 1016.7 in SW 7.4 mph 5.5 mph 96% 0.0 in WeatherDisplay:10.37 W/m2 OVC
03:39 1.5 °F 0.9 °F 1016.7 in West 9.3 mph 6.1 mph 96% 0.0 in WeatherDisplay:10.37 W/m2 OVC
03:44 1.5 °F 0.9 °F 1016.7 in NW 9.7 mph 6.4 mph 96% 0.0 in WeatherDisplay:10.37 W/m2 OVC
03:49 1.5 °F 0.9 °F 1016.7 in West 6.4 mph 6.4 mph 96% 0.0 in WeatherDisplay:10.37 W/m2 OVC
03:54 1.4 °F 0.7 °F 1016.3 in West 7.4 mph 6.1 mph 95% 0.0 in WeatherDisplay:10.37 W/m2 OVC
03:59 1.4 °F 0.7 °F 1017.0 in West 9.3 mph 5.8 mph 95% 0.0 in WeatherDisplay:10.37 W/m2 OVC
04:04 1.4 °F 0.7 °F 1016.7 in NW 9.3 mph 5.8 mph 95% 0.0 in WeatherDisplay:10.37 W/m2 OVC
04:09 1.4 °F 0.7 °F 1016.7 in West 7.4 mph 5.0 mph 95% 0.0 in WeatherDisplay:10.37 W/m2 OVC
04:14 1.4 °F 0.7 °F 1017.0 in West 5.6 mph 4.3 mph 95% 0.0 in WeatherDisplay:10.37 W/m2 OVC
04:19 1.4 °F 0.7 °F 1017.0 in WSW 5.6 mph 3.5 mph 95% 0.0 in WeatherDisplay:10.37 W/m2 OVC
04:24 1.4 °F 0.7 °F 1017.0 in West 9.7 mph 3.5 mph 95% 0.0 in WeatherDisplay:10.37 W/m2 OVC
04:29 1.4 °F 0.7 °F 1016.7 in SW 5.6 mph 4.7 mph 95% 0.0 in WeatherDisplay:10.37 W/m2 OVC
04:34 1.2 °F 0.5 °F 1016.7 in WNW 5.6 mph 4.0 mph 95% 0.0 in WeatherDisplay:10.37 W/m2 OVC
04:39 1.2 °F 0.2 °F 1016.7 in SW 11.1 mph 6.8 mph 93% 0.0 in WeatherDisplay:10.37 W/m2 OVC
04:44 1.2 °F 0.2 °F 1016.7 in West 7.4 mph 6.1 mph 93% 0.0 in WeatherDisplay:10.37 W/m2 OVC
04:49 1.2 °F 0.2 °F 1016.7 in West 11.1 mph 4.7 mph 93% 0.0 in WeatherDisplay:10.37 W/m2 OVC
04:54 1.2 °F 0.2 °F 1017.0 in West 11.1 mph 6.8 mph 93% 0.0 in WeatherDisplay:10.37 W/m2 OVC
04:59 1.2 °F 0.2 °F 1017.0 in West 7.4 mph 5.8 mph 93% 0.0 in WeatherDisplay:10.37 W/m2 OVC
05:04 1.2 °F 0.2 °F 1017.4 in West 11.1 mph 7.2 mph 93% 0.0 in WeatherDisplay:10.37 W/m2 OVC
05:09 1.2 °F 0.2 °F 1017.5 in SE 7.4 mph 6.1 mph 93% 0.0 in WeatherDisplay:10.37 W/m2 OVC
05:14 1.2 °F 0.2 °F 1017.0 in SW 7.4 mph 5.8 mph 93% 0.0 in WeatherDisplay:10.37 W/m2 OVC
05:19 1.2 °F 0.2 °F 1017.0 in WSW 13.0 mph 6.4 mph 93% 0.0 in WeatherDisplay:10.37 W/m2 OVC
05:24 1.2 °F 0.2 °F 1017.0 in West 14.3 mph 7.2 mph 93% 0.0 in WeatherDisplay:10.37 W/m2 OVC
05:29 1.2 °F 0.2 °F 1017.5 in SSW 3.7 mph 4.3 mph 93% 0.0 in WeatherDisplay:10.37 W/m2 OVC
05:34 1.2 °F 0.2 °F 1017.5 in West 5.6 mph 4.0 mph 93% 0.0 in WeatherDisplay:10.37 W/m2 OVC
05:39 1.1 °F 0.1 °F 1017.1 in West 5.6 mph 4.3 mph 93% 0.0 in WeatherDisplay:10.37 W/m2 OVC
05:44 1.1 °F 0.1 °F 1017.1 in NW 5.6 mph 4.3 mph 93% 0.0 in WeatherDisplay:10.37 W/m2 OVC
05:49 1.1 °F 0.1 °F 1017.1 in West 7.4 mph 5.5 mph 93% 0.0 in WeatherDisplay:10.37 W/m2 OVC
05:54 1.1 °F 0.1 °F 1017.1 in SW 7.4 mph 3.5 mph 93% 0.0 in WeatherDisplay:10.37 W/m2 OVC
05:59 1.0 °F 0.0 °F 1017.5 in SW 5.6 mph 4.7 mph 93% 0.0 in WeatherDisplay:10.37 W/m2 OVC
Juneau County Weather
Compliments of Weather Underground - 3 mb